createdAt,value
2018-07-17T00:02:08.294Z,10.33
2018-07-17T00:04:38.275Z,12.77
2018-07-17T00:07:08.272Z,13.67
2018-07-17T00:09:37.953Z,12.80
2018-07-17T00:12:08.070Z,14.23
2018-07-17T00:14:37.975Z,10.27
2018-07-17T00:17:08.004Z,12.87
2018-07-17T00:19:37.900Z,14.63
2018-07-17T00:22:07.527Z,18.43
2018-07-17T00:24:37.177Z,17.33
2018-07-17T00:27:06.900Z,11.17
2018-07-17T00:29:36.971Z,14.60
2018-07-17T00:32:06.743Z,11.20
2018-07-17T00:34:36.506Z,15.03
2018-07-17T00:37:06.486Z,14.87
2018-07-17T00:39:36.628Z,11.67
2018-07-17T00:42:06.462Z,13.37
2018-07-17T00:44:36.362Z,13.80
2018-07-17T00:47:06.625Z,12.77
2018-07-17T00:49:36.570Z,10.70
2018-07-17T00:52:06.171Z,10.40
2018-07-17T00:54:36.031Z,11.13
2018-07-17T00:57:05.872Z,14.10
2018-07-17T00:59:35.834Z,11.07
2018-07-17T01:02:10.985Z,13.17
2018-07-17T01:04:45.783Z,13.03
2018-07-17T01:07:20.755Z,13.27
2018-07-17T01:09:56.035Z,13.53
2018-07-17T01:12:24.826Z,15.30
2018-07-17T01:14:58.024Z,14.93
2018-07-17T01:17:28.638Z,12.67
2018-07-17T01:19:58.363Z,10.77
2018-07-17T01:22:27.862Z,11.17
2018-07-17T01:24:57.342Z,12.90
2018-07-17T01:27:27.024Z,11.07
2018-07-17T01:29:56.877Z,12.97
2018-07-17T01:32:26.566Z,12.83
2018-07-17T01:34:56.442Z,11.33
2018-07-17T01:37:26.230Z,11.67
2018-07-17T01:39:56.136Z,11.43
2018-07-17T01:42:25.879Z,10.97
2018-07-17T01:44:55.876Z,11.77
2018-07-17T01:47:25.663Z,13.07
2018-07-17T01:49:55.290Z,12.47
2018-07-17T01:52:24.923Z,14.03
2018-07-17T01:54:54.482Z,16.03
2018-07-17T01:57:24.126Z,11.87
2018-07-17T01:59:53.865Z,17.07
2018-07-17T02:02:23.657Z,18.87
2018-07-17T02:04:53.447Z,20.27
2018-07-17T02:07:23.402Z,15.73
2018-07-17T02:09:52.981Z,14.77
2018-07-17T02:12:22.725Z,12.60
2018-07-17T02:14:52.696Z,19.23
2018-07-17T02:17:22.530Z,13.53
2018-07-17T02:19:52.027Z,14.53
2018-07-17T02:22:21.507Z,14.70
2018-07-17T02:24:51.141Z,13.13
2018-07-17T02:27:20.890Z,12.17
2018-07-17T02:29:50.603Z,12.57
2018-07-17T02:32:20.681Z,23.67
2018-07-17T02:34:50.545Z,15.13
2018-07-17T02:37:20.311Z,15.10
2018-07-17T02:39:50.062Z,12.80
2018-07-17T02:42:19.638Z,15.47
2018-07-17T02:44:49.545Z,12.27
2018-07-17T02:47:19.294Z,13.63
2018-07-17T02:49:48.961Z,15.27
2018-07-17T02:52:18.542Z,15.80
2018-07-17T02:54:48.159Z,14.63
2018-07-17T02:57:18.034Z,14.33
2018-07-17T02:59:47.599Z,15.23
2018-07-17T03:02:17.207Z,17.67
2018-07-17T03:04:47.048Z,10.83
2018-07-17T03:07:16.943Z,19.10
2018-07-17T03:09:46.692Z,13.57
2018-07-17T03:12:16.516Z,11.30
2018-07-17T03:14:46.250Z,12.03
2018-07-17T03:17:16.035Z,14.53
2018-07-17T03:19:45.578Z,11.50
2018-07-17T03:22:15.283Z,18.13
2018-07-17T03:24:45.093Z,21.67
2018-07-17T03:27:14.739Z,22.67
2018-07-17T03:29:44.384Z,22.17
2018-07-17T03:32:14.162Z,20.30
2018-07-17T03:34:44.128Z,19.77
2018-07-17T03:37:14.130Z,25.00
2018-07-17T03:39:44.195Z,15.73
2018-07-17T03:42:14.163Z,19.37
2018-07-17T03:44:43.900Z,21.53
2018-07-17T03:47:13.738Z,19.57
2018-07-17T03:49:43.308Z,22.00
2018-07-17T03:52:12.886Z,20.10
2018-07-17T03:54:42.687Z,22.50
2018-07-17T03:57:12.392Z,21.57
2018-07-17T03:59:41.935Z,17.60
2018-07-17T04:02:11.865Z,26.03
2018-07-17T04:04:41.631Z,26.73
2018-07-17T04:07:11.578Z,20.97
2018-07-17T04:09:41.356Z,20.00
2018-07-17T04:12:11.339Z,18.10
2018-07-17T04:14:41.292Z,15.00
2018-07-17T04:17:11.202Z,17.17
2018-07-17T04:19:40.793Z,25.63
2018-07-17T04:22:10.493Z,20.23
2018-07-17T04:24:40.382Z,18.27
2018-07-17T04:27:10.191Z,17.93
2018-07-17T04:29:39.836Z,16.00
2018-07-17T04:32:09.576Z,18.27
2018-07-17T04:34:39.501Z,23.10
2018-07-17T04:37:09.456Z,13.93
2018-07-17T04:39:39.317Z,26.53
2018-07-17T04:42:09.373Z,22.13
2018-07-17T04:44:39.350Z,19.30
2018-07-17T04:47:08.980Z,39.07
2018-07-17T04:49:38.587Z,27.43
2018-07-17T04:52:08.309Z,27.07
2018-07-17T04:54:38.047Z,25.90
2018-07-17T04:57:08.248Z,20.07
2018-07-17T04:59:38.031Z,30.13
2018-07-17T05:02:07.797Z,20.53
2018-07-17T05:04:37.733Z,28.47
2018-07-17T05:07:07.390Z,21.63
2018-07-17T05:09:37.163Z,17.03
2018-07-17T05:12:06.903Z,23.37
2018-07-17T05:14:36.597Z,24.50
2018-07-17T05:17:06.684Z,21.30
2018-07-17T05:19:36.161Z,28.07
2018-07-17T05:22:05.818Z,32.00
2018-07-17T05:24:35.459Z,41.10
2018-07-17T05:27:05.599Z,21.57
2018-07-17T05:29:35.307Z,25.63
2018-07-17T05:32:05.131Z,22.27
2018-07-17T05:34:34.896Z,22.23
2018-07-17T05:37:04.712Z,18.30
2018-07-17T05:39:34.355Z,25.57
2018-07-17T05:42:04.355Z,20.40
2018-07-17T05:44:34.200Z,21.63
2018-07-17T05:47:04.011Z,57.50
2018-07-17T05:49:33.675Z,41.10
2018-07-17T05:52:03.415Z,26.50
2018-07-17T05:54:32.904Z,30.27
2018-07-17T05:57:02.811Z,24.10
2018-07-17T05:59:32.608Z,28.03
2018-07-17T06:02:02.289Z,19.40
2018-07-17T06:04:32.027Z,20.13
2018-07-17T06:07:02.079Z,21.03
2018-07-17T06:09:31.814Z,18.57
2018-07-17T06:12:01.685Z,29.53
2018-07-17T06:14:31.700Z,22.93
2018-07-17T06:17:01.314Z,21.77
2018-07-17T06:19:30.968Z,17.37
2018-07-17T06:22:00.622Z,20.80
2018-07-17T06:24:30.268Z,27.82
2018-07-17T06:27:00.036Z,23.90
2018-07-17T06:29:30.073Z,26.45
2018-07-17T06:31:59.755Z,26.68
2018-07-17T06:34:29.779Z,15.18
2018-07-17T06:36:59.649Z,19.50
2018-07-17T06:39:29.524Z,19.12
2018-07-17T06:41:59.272Z,14.70
2018-07-17T06:44:29.194Z,23.80
2018-07-17T06:46:58.892Z,32.05
2018-07-17T06:49:28.852Z,25.12
2018-07-17T06:51:58.647Z,22.87
2018-07-17T06:54:28.581Z,14.30
2018-07-17T06:56:58.191Z,15.98
2018-07-17T06:59:27.837Z,18.10
2018-07-17T07:01:57.521Z,18.27
2018-07-17T07:04:27.561Z,19.73
2018-07-17T07:06:57.515Z,19.73
2018-07-17T07:09:27.396Z,28.73
2018-07-17T07:11:57.226Z,21.82
2018-07-17T07:14:27.033Z,24.57
2018-07-17T07:16:56.955Z,31.52
2018-07-17T07:19:26.844Z,21.57
2018-07-17T07:21:56.388Z,26.73
2018-07-17T07:24:26.307Z,23.38
2018-07-17T07:26:56.255Z,26.67
2018-07-17T07:29:25.997Z,14.67
2018-07-17T07:31:55.650Z,23.87
2018-07-17T07:34:25.292Z,18.30
2018-07-17T07:36:55.133Z,18.42
2018-07-17T07:39:25.035Z,22.20
2018-07-17T07:41:54.689Z,20.43
2018-07-17T07:44:24.387Z,22.73
2018-07-17T07:46:54.591Z,15.30
2018-07-17T07:49:24.176Z,17.57
2018-07-17T07:51:53.767Z,19.13
2018-07-17T07:54:23.701Z,25.20
2018-07-17T07:56:53.581Z,22.30
2018-07-17T07:59:23.511Z,19.83
2018-07-17T08:01:53.826Z,18.83
2018-07-17T08:04:23.479Z,21.23
2018-07-17T08:06:53.450Z,16.30
2018-07-17T08:09:23.100Z,18.77
2018-07-17T08:11:53.907Z,17.90
2018-07-17T08:14:25.972Z,18.17
2018-07-17T08:16:56.091Z,18.60
2018-07-17T08:19:25.919Z,22.00
2018-07-17T08:21:55.781Z,15.77
2018-07-17T08:24:25.768Z,14.53
2018-07-17T08:26:55.838Z,13.67
2018-07-17T08:29:26.242Z,15.97
2018-07-17T08:31:56.114Z,15.43
2018-07-17T08:34:25.843Z,15.67
2018-07-17T08:36:55.367Z,18.60
2018-07-17T08:39:26.266Z,22.53
2018-07-17T08:41:56.431Z,17.67
2018-07-17T08:44:27.674Z,18.43
2018-07-17T08:46:58.567Z,18.10
2018-07-17T08:49:29.759Z,20.47
2018-07-17T08:51:59.600Z,16.80
2018-07-17T08:54:29.612Z,18.60
2018-07-17T08:56:59.418Z,19.03
2018-07-17T08:59:29.430Z,12.43
2018-07-17T09:01:59.524Z,10.53
2018-07-17T09:04:29.272Z,11.60
2018-07-17T09:06:58.966Z,14.40
2018-07-17T09:09:28.590Z,14.53
2018-07-17T09:11:58.367Z,15.73
2018-07-17T09:14:28.010Z,14.67
2018-07-17T09:16:57.862Z,14.93
2018-07-17T09:19:27.638Z,18.10
2018-07-17T09:21:57.591Z,15.93
2018-07-17T09:24:27.992Z,20.47
2018-07-17T09:26:58.034Z,14.83
2018-07-17T09:29:27.649Z,16.67
2018-07-17T09:31:58.315Z,17.37
2018-07-17T09:34:28.365Z,15.03
2018-07-17T09:36:58.416Z,15.03
2018-07-17T09:39:28.489Z,14.85
2018-07-17T09:41:58.142Z,16.40
2018-07-17T09:44:27.647Z,16.10
2018-07-17T09:46:57.219Z,17.80
2018-07-17T09:49:26.947Z,12.13
2018-07-17T09:51:56.815Z,14.50
2018-07-17T09:54:26.530Z,13.48
2018-07-17T09:56:56.290Z,10.00
2018-07-17T09:59:26.114Z,7.55
2018-07-17T10:02:01.116Z,13.85
2018-07-17T10:04:31.268Z,10.03
2018-07-17T10:07:00.906Z,11.10
2018-07-17T10:09:30.981Z,12.95
2018-07-17T10:12:00.475Z,12.35
2018-07-17T10:14:30.107Z,11.85
2018-07-17T10:16:59.662Z,11.65
2018-07-17T10:19:29.380Z,11.25
2018-07-17T10:21:59.043Z,10.75
2018-07-17T10:24:29.054Z,8.45
2018-07-17T10:26:58.730Z,12.20
2018-07-17T10:29:29.498Z,10.63
2018-07-17T10:31:59.427Z,9.65
2018-07-17T10:34:29.103Z,15.10
2018-07-17T10:36:58.834Z,10.23
2018-07-17T10:39:28.749Z,11.88
2018-07-17T10:41:58.633Z,8.83
2018-07-17T10:44:28.798Z,7.35
2018-07-17T10:46:58.788Z,6.30
2018-07-17T10:49:28.341Z,8.38
2018-07-17T10:51:58.002Z,3.90
2018-07-17T10:54:27.603Z,10.80
2018-07-17T10:56:57.366Z,5.92
2018-07-17T10:59:27.151Z,3.50
2018-07-17T11:01:56.844Z,6.03
2018-07-17T11:04:26.708Z,2.83
2018-07-17T11:06:56.632Z,3.27
2018-07-17T11:09:26.646Z,6.83
2018-07-17T11:11:56.676Z,6.50
2018-07-17T11:14:26.460Z,6.22
2018-07-17T11:16:56.626Z,8.25
2018-07-17T11:19:26.677Z,4.33
2018-07-17T11:21:56.207Z,3.27
2018-07-17T11:24:25.877Z,5.65
2018-07-17T11:26:55.670Z,3.02
2018-07-17T11:29:25.361Z,5.78
2018-07-17T11:31:54.953Z,4.87
2018-07-17T11:34:25.024Z,7.08
2018-07-17T11:36:54.646Z,3.10
2018-07-17T11:39:24.365Z,3.40
2018-07-17T11:41:54.004Z,5.03
2018-07-17T11:44:30.070Z,7.97
2018-07-17T11:46:59.977Z,7.53
2018-07-17T11:49:29.767Z,13.78
2018-07-17T11:51:59.467Z,9.85
2018-07-17T11:54:29.092Z,8.85
2018-07-17T11:56:58.662Z,6.80
2018-07-17T11:59:28.371Z,12.15
2018-07-17T12:01:58.079Z,4.60
2018-07-17T12:04:27.657Z,4.83
2018-07-17T12:06:57.389Z,7.83
2018-07-17T12:09:27.395Z,7.10
2018-07-17T12:11:57.202Z,12.40
2018-07-17T12:14:26.921Z,9.13
2018-07-17T12:16:56.728Z,6.62
2018-07-17T12:19:26.400Z,10.68
2018-07-17T12:21:56.310Z,12.53
2018-07-17T12:24:26.358Z,11.57
2018-07-17T12:26:56.162Z,10.25
2018-07-17T12:29:25.746Z,7.87
2018-07-17T12:31:55.383Z,7.85
2018-07-17T12:34:25.116Z,5.08
2018-07-17T12:36:55.067Z,7.70
2018-07-17T12:39:24.735Z,5.65
2018-07-17T12:41:54.467Z,7.55
2018-07-17T12:44:24.319Z,7.65
2018-07-17T12:46:54.099Z,12.43
2018-07-17T12:49:23.728Z,10.18
2018-07-17T12:51:53.524Z,14.70
2018-07-17T12:54:23.358Z,14.07
2018-07-17T12:56:53.350Z,5.10
2018-07-17T12:59:22.940Z,7.28
2018-07-17T13:01:52.595Z,8.58
2018-07-17T13:04:22.324Z,5.22
2018-07-17T13:06:52.860Z,6.80
2018-07-17T13:09:22.937Z,8.20
2018-07-17T13:11:52.616Z,7.00
2018-07-17T13:14:22.465Z,6.92
2018-07-17T13:16:52.151Z,8.98
2018-07-17T13:19:21.899Z,5.05
2018-07-17T13:21:51.669Z,6.20
2018-07-17T13:24:21.601Z,6.97
2018-07-17T13:26:51.487Z,9.90
2018-07-17T13:29:21.640Z,5.95
2018-07-17T13:31:51.166Z,5.72
2018-07-17T13:34:20.645Z,5.47
2018-07-17T13:36:50.158Z,5.47
2018-07-17T13:39:20.063Z,5.22
2018-07-17T13:41:49.630Z,10.85
2018-07-17T13:44:19.600Z,10.38
2018-07-17T13:46:49.367Z,7.12
2018-07-17T13:49:19.086Z,11.78
2018-07-17T13:51:48.879Z,6.40
2018-07-17T13:54:18.779Z,4.95
2018-07-17T13:56:48.407Z,8.28
2018-07-17T13:59:18.277Z,12.18
2018-07-17T14:01:48.355Z,9.40
2018-07-17T14:04:17.945Z,8.03
2018-07-17T14:06:48.189Z,7.30
2018-07-17T14:09:17.754Z,5.55
2018-07-17T14:11:47.434Z,11.93
2018-07-17T14:14:17.105Z,10.40
2018-07-17T14:16:46.867Z,4.17
2018-07-17T14:19:16.568Z,4.35
2018-07-17T14:21:46.396Z,5.00
2018-07-17T14:24:15.978Z,4.87
2018-07-17T14:26:45.959Z,12.20
2018-07-17T14:29:16.227Z,4.03
2018-07-17T14:31:47.168Z,5.08
2018-07-17T14:34:16.852Z,6.35
2018-07-17T14:36:46.651Z,7.80
2018-07-17T14:39:16.423Z,7.70
2018-07-17T14:41:46.352Z,8.38
2018-07-17T14:44:16.242Z,4.35
2018-07-17T14:46:45.954Z,3.42
2018-07-17T14:49:15.654Z,7.67
2018-07-17T14:51:45.332Z,8.30
2018-07-17T14:54:15.270Z,8.73
2018-07-17T14:56:44.890Z,6.00
2018-07-17T14:59:14.448Z,5.05
2018-07-17T15:01:44.319Z,16.23
2018-07-17T15:04:13.930Z,5.60
2018-07-17T15:06:43.848Z,2.77
2018-07-17T15:09:13.704Z,5.47
2018-07-17T15:11:43.793Z,4.05
2018-07-17T15:14:13.615Z,5.12
2018-07-17T15:16:43.640Z,6.20
2018-07-17T15:19:13.507Z,7.00
2018-07-17T15:21:43.316Z,8.88
2018-07-17T15:24:12.914Z,5.78
2018-07-17T15:26:43.703Z,5.20
2018-07-17T15:29:13.289Z,8.55
2018-07-17T15:31:42.775Z,7.53
2018-07-17T15:34:12.359Z,5.90
2018-07-17T15:36:44.217Z,5.65
2018-07-17T15:39:13.926Z,12.33
2018-07-17T15:41:43.827Z,9.18
2018-07-17T15:44:13.843Z,7.30
2018-07-17T15:46:43.666Z,6.92
2018-07-17T15:49:13.396Z,8.63
2018-07-17T15:51:43.132Z,6.75
2018-07-17T15:54:12.754Z,8.93
2018-07-17T15:56:42.814Z,8.08
2018-07-17T15:59:12.375Z,6.83
2018-07-17T16:01:41.903Z,5.60
2018-07-17T16:04:11.802Z,3.52
2018-07-17T16:06:41.275Z,5.33
2018-07-17T16:09:11.076Z,7.03
2018-07-17T16:11:40.893Z,6.53
2018-07-17T16:14:10.935Z,5.62
2018-07-17T16:16:40.559Z,4.37
2018-07-17T16:19:10.522Z,3.40
2018-07-17T16:21:40.762Z,8.25
2018-07-17T16:24:11.134Z,7.40
2018-07-17T16:26:41.041Z,7.10
2018-07-17T16:29:10.554Z,5.58
2018-07-17T16:31:40.183Z,6.03
2018-07-17T16:34:09.941Z,5.67
2018-07-17T16:36:39.716Z,4.17
2018-07-17T16:39:09.426Z,5.47
2018-07-17T16:41:39.264Z,5.90
2018-07-17T16:44:09.111Z,8.80
2018-07-17T16:46:39.141Z,8.37
2018-07-17T16:49:09.062Z,4.57
2018-07-17T16:51:38.725Z,5.63
2018-07-17T16:54:08.598Z,6.70
2018-07-17T16:56:38.150Z,4.30
2018-07-17T16:59:07.804Z,3.13
2018-07-17T17:01:37.440Z,6.40
2018-07-17T17:04:07.385Z,4.63
2018-07-17T17:06:37.303Z,5.03
2018-07-17T17:09:10.039Z,7.73
2018-07-17T17:11:39.779Z,3.83
2018-07-17T17:14:09.863Z,8.63
2018-07-17T17:16:41.293Z,6.03
2018-07-17T17:19:11.318Z,12.07
2018-07-17T17:21:41.061Z,6.87
2018-07-17T17:24:11.112Z,5.73
2018-07-17T17:26:41.799Z,4.33
2018-07-17T17:29:11.841Z,5.30
2018-07-17T17:31:41.424Z,8.17
2018-07-17T17:34:11.226Z,6.30
2018-07-17T17:36:41.310Z,4.37
2018-07-17T17:39:12.087Z,3.30
2018-07-17T17:41:42.446Z,4.20
2018-07-17T17:44:12.243Z,3.70
2018-07-17T17:46:43.063Z,5.67
2018-07-17T17:49:13.744Z,3.77
2018-07-17T17:51:44.661Z,5.77
2018-07-17T17:54:14.668Z,6.03
2018-07-17T17:56:44.973Z,8.40
2018-07-17T17:59:21.358Z,5.97
2018-07-17T18:01:51.487Z,9.77
2018-07-17T18:04:21.215Z,7.67
2018-07-17T18:06:51.220Z,5.20
2018-07-17T18:09:20.890Z,4.33
2018-07-17T18:11:50.709Z,7.27
2018-07-17T18:14:22.427Z,5.43
2018-07-17T18:16:52.414Z,5.70
2018-07-17T18:19:21.932Z,5.73
2018-07-17T18:21:51.606Z,5.47
2018-07-17T18:24:21.300Z,6.60
2018-07-17T18:26:51.327Z,6.07
2018-07-17T18:29:20.819Z,5.77
2018-07-17T18:31:50.976Z,9.03
2018-07-17T18:34:20.679Z,7.07
2018-07-17T18:36:50.514Z,6.57
2018-07-17T18:39:20.094Z,8.03
2018-07-17T18:41:50.069Z,6.87
2018-07-17T18:44:19.678Z,8.70
2018-07-17T18:46:49.531Z,8.70
2018-07-17T18:49:19.460Z,8.67
2018-07-17T18:51:49.356Z,6.70
2018-07-17T18:54:18.860Z,7.87
2018-07-17T18:56:48.792Z,7.77
2018-07-17T18:59:18.429Z,6.13
2018-07-17T19:01:48.311Z,8.70
2018-07-17T19:04:17.928Z,7.50
2018-07-17T19:06:47.699Z,7.20
2018-07-17T19:09:17.548Z,6.50
2018-07-17T19:11:47.221Z,6.03
2018-07-17T19:14:16.927Z,8.20
2018-07-17T19:16:46.911Z,7.17
2018-07-17T19:19:16.907Z,6.37
2018-07-17T19:21:46.702Z,6.70
2018-07-17T19:24:16.312Z,6.63
2018-07-17T19:26:45.826Z,8.57
2018-07-17T19:29:15.387Z,7.17
2018-07-17T19:31:45.311Z,8.83
2018-07-17T19:34:15.227Z,7.60
2018-07-17T19:36:45.322Z,6.00
2018-07-17T19:39:15.403Z,12.00
2018-07-17T19:41:45.090Z,5.43
2018-07-17T19:44:15.083Z,5.57
2018-07-17T19:46:45.091Z,6.27
2018-07-17T19:49:14.608Z,5.37
2018-07-17T19:51:44.647Z,5.20
2018-07-17T19:54:14.296Z,7.43
2018-07-17T19:56:43.959Z,5.07
2018-07-17T19:59:13.563Z,4.93
2018-07-17T20:01:43.555Z,6.30
2018-07-17T20:04:13.132Z,6.90
2018-07-17T20:06:42.834Z,5.47
2018-07-17T20:09:12.612Z,6.57
2018-07-17T20:11:42.458Z,8.07
2018-07-17T20:14:12.386Z,5.47
2018-07-17T20:16:42.070Z,6.20
2018-07-17T20:19:12.173Z,6.57
2018-07-17T20:21:41.962Z,6.00
2018-07-17T20:24:11.479Z,7.90
2018-07-17T20:26:41.053Z,7.37
2018-07-17T20:29:10.614Z,7.17
2018-07-17T20:31:40.471Z,8.00
2018-07-17T20:34:10.243Z,7.50
2018-07-17T20:36:39.995Z,9.40
2018-07-17T20:39:10.847Z,8.20
2018-07-17T20:41:41.237Z,9.17
2018-07-17T20:44:11.056Z,10.40
2018-07-17T20:46:40.899Z,11.03
2018-07-17T20:49:10.426Z,9.97
2018-07-17T20:51:40.019Z,10.60
2018-07-17T20:54:09.786Z,10.97
2018-07-17T20:56:39.769Z,10.33
2018-07-17T20:59:09.795Z,13.03
2018-07-17T21:01:39.570Z,13.67
2018-07-17T21:04:09.363Z,14.43
2018-07-17T21:06:39.330Z,14.57
2018-07-17T21:09:11.175Z,14.90
2018-07-17T21:11:41.439Z,15.60
2018-07-17T21:14:11.258Z,17.33
2018-07-17T21:16:41.053Z,18.37
2018-07-17T21:19:11.076Z,18.83
2018-07-17T21:21:40.615Z,15.77
2018-07-17T21:24:10.396Z,16.73
2018-07-17T21:26:40.089Z,16.37
2018-07-17T21:29:09.635Z,16.10
2018-07-17T21:31:39.571Z,17.00
2018-07-17T21:34:09.232Z,14.87
2018-07-17T21:36:39.291Z,14.73
2018-07-17T21:39:10.637Z,14.33
2018-07-17T21:41:40.462Z,16.17
2018-07-17T21:44:10.407Z,16.37
2018-07-17T21:46:40.351Z,16.50
2018-07-17T21:49:10.166Z,16.80
2018-07-17T21:51:39.810Z,16.87
2018-07-17T21:54:09.589Z,16.10
2018-07-17T21:56:39.242Z,17.57
2018-07-17T21:59:08.905Z,16.80
2018-07-17T22:01:38.666Z,18.30
2018-07-17T22:04:08.500Z,20.40
2018-07-17T22:06:38.379Z,20.70
2018-07-17T22:09:11.399Z,19.83
2018-07-17T22:11:41.042Z,18.63
2018-07-17T22:14:10.904Z,21.33
2018-07-17T22:16:40.640Z,21.80
2018-07-17T22:19:10.317Z,21.20
2018-07-17T22:21:40.136Z,20.80
2018-07-17T22:24:09.640Z,20.40
2018-07-17T22:26:39.226Z,23.33
2018-07-17T22:29:08.956Z,21.63
2018-07-17T22:31:38.856Z,21.87
2018-07-17T22:34:08.855Z,21.03
2018-07-17T22:36:38.744Z,21.00
2018-07-17T22:39:09.569Z,20.20
2018-07-17T22:41:39.432Z,24.67
2018-07-17T22:44:09.486Z,23.07
2018-07-17T22:46:39.400Z,22.33
2018-07-17T22:49:09.338Z,22.77
2018-07-17T22:51:38.906Z,23.00
2018-07-17T22:54:08.393Z,21.00
2018-07-17T22:56:38.013Z,21.70
2018-07-17T22:59:07.631Z,21.80
2018-07-17T23:01:37.343Z,27.13
2018-07-17T23:04:07.447Z,23.30
2018-07-17T23:06:37.281Z,20.43
2018-07-17T23:09:09.136Z,23.83
2018-07-17T23:11:39.662Z,22.10
2018-07-17T23:14:10.127Z,25.37
2018-07-17T23:16:40.183Z,24.87
2018-07-17T23:19:09.943Z,22.00
2018-07-17T23:21:39.485Z,22.73
2018-07-17T23:24:08.994Z,23.67
2018-07-17T23:26:38.562Z,23.30
2018-07-17T23:29:08.325Z,23.00
2018-07-17T23:31:38.141Z,24.73
2018-07-17T23:34:07.739Z,24.03
2018-07-17T23:36:37.281Z,22.37
2018-07-17T23:39:09.651Z,26.07
2018-07-17T23:41:39.378Z,23.17
2018-07-17T23:44:09.122Z,25.50
2018-07-17T23:46:38.791Z,24.53
2018-07-17T23:49:08.701Z,25.53
2018-07-17T23:51:38.288Z,23.80
2018-07-17T23:54:07.746Z,24.97
2018-07-17T23:56:37.518Z,25.40
2018-07-17T23:59:07.263Z,23.63
